Carlotta, California
Current Conditions -  °F | °C
As of 11:55 AM on Thursday 30 Oct 2014 (Local Time) from KFOT Reporting Station
Clear Clear  
Wind Chill: 66°   Ceiling: Unl
Heat Index: 66°   Visibility: 10mi
Dew Point: 61°   Wind: 3mph
Humidity: 83%   Direction: 300°WNW
Pressure: 29.92"   Gusts: NA
Location:  40.54°N, 124.06°W
Report Text: KFOT 301855Z AUTO 30003KT 10SM CLR 19/16 A2992 RMK AO1
Loading
Personal Weather Stations






























Interactive Weather Map
Tropical Storm Tracking
New forecast layout! Learn more

10-Day Weather Forecast

Advertisements
Track Severe Weather on mobile